sensor_id;sensor_type;location;lat;lon;timestamp;P1;durP1;ratioP1;P2;durP2;ratioP2
17145;SDS011;8688;54.444;18.444;2023-04-24T00:01:30;7.13;;;5.43;;
17145;SDS011;8688;54.444;18.444;2023-04-24T00:03:59;7.35;;;5.78;;
17145;SDS011;8688;54.444;18.444;2023-04-24T00:06:26;7.72;;;5.55;;
17145;SDS011;8688;54.444;18.444;2023-04-24T00:08:59;8.15;;;6.25;;
17145;SDS011;8688;54.444;18.444;2023-04-24T00:11:27;10.07;;;5.93;;
17145;SDS011;8688;54.444;18.444;2023-04-24T00:13:56;7.82;;;5.68;;
17145;SDS011;8688;54.444;18.444;2023-04-24T00:16:24;8.27;;;5.53;;
17145;SDS011;8688;54.444;18.444;2023-04-24T00:18:52;7.95;;;6.07;;
17145;SDS011;8688;54.444;18.444;2023-04-24T00:21:19;8.32;;;5.72;;
17145;SDS011;8688;54.444;18.444;2023-04-24T00:23:50;8.00;;;5.55;;
17145;SDS011;8688;54.444;18.444;2023-04-24T00:26:18;8.63;;;6.15;;
17145;SDS011;8688;54.444;18.444;2023-04-24T00:28:45;8.32;;;6.50;;
17145;SDS011;8688;54.444;18.444;2023-04-24T00:31:14;9.02;;;6.18;;
17145;SDS011;8688;54.444;18.444;2023-04-24T00:33:41;7.40;;;6.43;;
17145;SDS011;8688;54.444;18.444;2023-04-24T00:36:09;8.45;;;6.40;;
17145;SDS011;8688;54.444;18.444;2023-04-24T00:38:36;8.75;;;6.35;;
17145;SDS011;8688;54.444;18.444;2023-04-24T00:41:04;21.58;;;14.10;;
17145;SDS011;8688;54.444;18.444;2023-04-24T00:43:31;26.40;;;17.05;;
17145;SDS011;8688;54.444;18.444;2023-04-24T00:45:59;25.10;;;16.50;;
17145;SDS011;8688;54.444;18.444;2023-04-24T00:48:28;24.90;;;16.92;;
17145;SDS011;8688;54.444;18.444;2023-04-24T00:50:55;25.60;;;17.00;;
17145;SDS011;8688;54.444;18.444;2023-04-24T00:53:23;26.40;;;16.95;;
17145;SDS011;8688;54.444;18.444;2023-04-24T00:55:51;27.95;;;17.23;;
17145;SDS011;8688;54.444;18.444;2023-04-24T00:58:18;28.77;;;17.63;;
17145;SDS011;8688;54.444;18.444;2023-04-24T01:00:46;27.33;;;17.23;;
17145;SDS011;8688;54.444;18.444;2023-04-24T01:03:18;32.10;;;18.92;;
17145;SDS011;8688;54.444;18.444;2023-04-24T01:05:47;32.00;;;17.70;;
17145;SDS011;8688;54.444;18.444;2023-04-24T01:08:16;28.25;;;17.63;;
17145;SDS011;8688;54.444;18.444;2023-04-24T01:10:44;26.70;;;16.33;;
17145;SDS011;8688;54.444;18.444;2023-04-24T01:13:13;26.23;;;16.27;;
17145;SDS011;8688;54.444;18.444;2023-04-24T01:15:41;27.40;;;16.48;;
17145;SDS011;8688;54.444;18.444;2023-04-24T01:18:08;27.52;;;15.82;;
17145;SDS011;8688;54.444;18.444;2023-04-24T01:20:36;28.17;;;16.80;;
17145;SDS011;8688;54.444;18.444;2023-04-24T01:23:07;26.70;;;16.02;;
17145;SDS011;8688;54.444;18.444;2023-04-24T01:25:35;28.20;;;16.17;;
17145;SDS011;8688;54.444;18.444;2023-04-24T01:28:03;29.90;;;17.27;;
17145;SDS011;8688;54.444;18.444;2023-04-24T01:30:31;27.48;;;16.33;;
17145;SDS011;8688;54.444;18.444;2023-04-24T01:32:59;29.73;;;16.98;;
17145;SDS011;8688;54.444;18.444;2023-04-24T01:35:26;27.85;;;16.20;;
17145;SDS011;8688;54.444;18.444;2023-04-24T01:37:54;29.30;;;17.20;;
17145;SDS011;8688;54.444;18.444;2023-04-24T01:40:23;33.42;;;19.02;;
17145;SDS011;8688;54.444;18.444;2023-04-24T01:42:50;29.85;;;17.65;;
17145;SDS011;8688;54.444;18.444;2023-04-24T01:45:18;30.80;;;17.45;;
17145;SDS011;8688;54.444;18.444;2023-04-24T01:47:45;33.00;;;17.58;;
17145;SDS011;8688;54.444;18.444;2023-04-24T01:50:14;31.08;;;17.05;;
17145;SDS011;8688;54.444;18.444;2023-04-24T01:52:41;31.02;;;17.95;;
17145;SDS011;8688;54.444;18.444;2023-04-24T01:55:09;34.08;;;18.52;;
17145;SDS011;8688;54.444;18.444;2023-04-24T01:57:38;34.20;;;18.10;;
17145;SDS011;8688;54.444;18.444;2023-04-24T02:00:07;35.13;;;18.85;;
17145;SDS011;8688;54.444;18.444;2023-04-24T02:02:36;37.70;;;19.95;;
17145;SDS011;8688;54.444;18.444;2023-04-24T02:05:05;37.90;;;19.05;;
17145;SDS011;8688;54.444;18.444;2023-04-24T02:07:33;38.95;;;19.67;;
17145;SDS011;8688;54.444;18.444;2023-04-24T02:10:00;39.67;;;20.92;;
17145;SDS011;8688;54.444;18.444;2023-04-24T02:12:29;43.80;;;21.88;;
17145;SDS011;8688;54.444;18.444;2023-04-24T02:14:58;43.08;;;20.80;;
17145;SDS011;8688;54.444;18.444;2023-04-24T02:17:25;43.65;;;22.33;;
17145;SDS011;8688;54.444;18.444;2023-04-24T02:19:52;40.33;;;20.70;;
17145;SDS011;8688;54.444;18.444;2023-04-24T02:22:20;40.97;;;19.33;;
17145;SDS011;8688;54.444;18.444;2023-04-24T02:24:47;40.63;;;19.40;;
17145;SDS011;8688;54.444;18.444;2023-04-24T02:27:15;38.78;;;19.88;;
17145;SDS011;8688;54.444;18.444;2023-04-24T02:29:42;40.20;;;20.35;;
17145;SDS011;8688;54.444;18.444;2023-04-24T02:32:11;41.13;;;21.17;;
17145;SDS011;8688;54.444;18.444;2023-04-24T02:34:40;42.60;;;19.90;;
17145;SDS011;8688;54.444;18.444;2023-04-24T02:37:08;53.08;;;17.88;;
17145;SDS011;8688;54.444;18.444;2023-04-24T02:39:35;35.90;;;16.60;;
17145;SDS011;8688;54.444;18.444;2023-04-24T02:42:02;40.50;;;16.75;;
17145;SDS011;8688;54.444;18.444;2023-04-24T02:44:30;39.95;;;16.02;;
17145;SDS011;8688;54.444;18.444;2023-04-24T02:46:58;32.42;;;15.88;;
17145;SDS011;8688;54.444;18.444;2023-04-24T02:49:26;38.08;;;14.40;;
17145;SDS011;8688;54.444;18.444;2023-04-24T02:51:54;33.88;;;15.38;;
17145;SDS011;8688;54.444;18.444;2023-04-24T02:54:21;38.67;;;16.08;;
17145;SDS011;8688;54.444;18.444;2023-04-24T02:56:48;35.63;;;15.15;;
17145;SDS011;8688;54.444;18.444;2023-04-24T02:59:16;37.45;;;15.60;;
17145;SDS011;8688;54.444;18.444;2023-04-24T03:01:43;40.88;;;15.43;;
17145;SDS011;8688;54.444;18.444;2023-04-24T03:04:11;37.03;;;15.68;;
17145;SDS011;8688;54.444;18.444;2023-04-24T03:06:40;49.25;;;16.52;;
17145;SDS011;8688;54.444;18.444;2023-04-24T03:09:07;48.45;;;15.43;;
17145;SDS011;8688;54.444;18.444;2023-04-24T03:11:34;36.83;;;15.55;;
17145;SDS011;8688;54.444;18.444;2023-04-24T03:14:02;49.78;;;15.93;;
17145;SDS011;8688;54.444;18.444;2023-04-24T03:16:29;31.45;;;15.55;;
17145;SDS011;8688;54.444;18.444;2023-04-24T03:18:58;30.10;;;15.63;;
17145;SDS011;8688;54.444;18.444;2023-04-24T03:21:25;36.45;;;15.60;;
17145;SDS011;8688;54.444;18.444;2023-04-24T03:23:54;32.17;;;15.93;;
17145;SDS011;8688;54.444;18.444;2023-04-24T03:26:22;33.88;;;16.30;;
17145;SDS011;8688;54.444;18.444;2023-04-24T03:28:50;32.55;;;16.27;;
17145;SDS011;8688;54.444;18.444;2023-04-24T03:31:17;32.60;;;16.33;;
17145;SDS011;8688;54.444;18.444;2023-04-24T03:33:46;34.20;;;16.75;;
17145;SDS011;8688;54.444;18.444;2023-04-24T03:36:13;30.60;;;16.10;;
17145;SDS011;8688;54.444;18.444;2023-04-24T03:38:41;35.83;;;17.63;;
17145;SDS011;8688;54.444;18.444;2023-04-24T03:41:09;40.28;;;18.52;;
17145;SDS011;8688;54.444;18.444;2023-04-24T03:43:37;37.42;;;18.67;;
17145;SDS011;8688;54.444;18.444;2023-04-24T03:46:05;43.13;;;18.88;;
17145;SDS011;8688;54.444;18.444;2023-04-24T03:48:34;45.63;;;20.83;;
17145;SDS011;8688;54.444;18.444;2023-04-24T03:51:01;37.30;;;17.45;;
17145;SDS011;8688;54.444;18.444;2023-04-24T03:53:29;38.35;;;17.25;;
17145;SDS011;8688;54.444;18.444;2023-04-24T03:55:56;34.40;;;15.80;;
17145;SDS011;8688;54.444;18.444;2023-04-24T03:58:25;42.13;;;15.93;;
17145;SDS011;8688;54.444;18.444;2023-04-24T04:00:53;33.20;;;15.32;;
17145;SDS011;8688;54.444;18.444;2023-04-24T04:03:22;36.42;;;16.98;;
17145;SDS011;8688;54.444;18.444;2023-04-24T04:05:50;31.73;;;16.38;;
17145;SDS011;8688;54.444;18.444;2023-04-24T04:08:18;34.60;;;15.73;;
17145;SDS011;8688;54.444;18.444;2023-04-24T04:10:47;33.28;;;15.00;;
17145;SDS011;8688;54.444;18.444;2023-04-24T04:13:18;27.42;;;14.88;;
17145;SDS011;8688;54.444;18.444;2023-04-24T04:15:48;47.63;;;12.90;;
17145;SDS011;8688;54.444;18.444;2023-04-24T04:18:15;33.40;;;13.45;;
17145;SDS011;8688;54.444;18.444;2023-04-24T04:20:43;34.40;;;14.95;;
17145;SDS011;8688;54.444;18.444;2023-04-24T04:23:10;35.75;;;14.88;;
17145;SDS011;8688;54.444;18.444;2023-04-24T04:25:37;34.10;;;15.38;;
17145;SDS011;8688;54.444;18.444;2023-04-24T04:28:05;33.15;;;15.95;;
17145;SDS011;8688;54.444;18.444;2023-04-24T04:30:32;37.38;;;16.48;;
17145;SDS011;8688;54.444;18.444;2023-04-24T04:33:01;46.53;;;17.60;;
17145;SDS011;8688;54.444;18.444;2023-04-24T04:35:29;39.28;;;17.17;;
17145;SDS011;8688;54.444;18.444;2023-04-24T04:37:56;42.38;;;18.17;;
17145;SDS011;8688;54.444;18.444;2023-04-24T04:40:24;41.55;;;17.48;;
17145;SDS011;8688;54.444;18.444;2023-04-24T04:42:51;41.67;;;17.30;;
17145;SDS011;8688;54.444;18.444;2023-04-24T04:45:19;39.75;;;17.45;;
17145;SDS011;8688;54.444;18.444;2023-04-24T04:47:46;45.00;;;17.75;;
17145;SDS011;8688;54.444;18.444;2023-04-24T04:50:16;44.88;;;18.33;;
17145;SDS011;8688;54.444;18.444;2023-04-24T04:52:44;39.90;;;17.40;;
17145;SDS011;8688;54.444;18.444;2023-04-24T04:55:12;42.53;;;17.60;;
17145;SDS011;8688;54.444;18.444;2023-04-24T04:57:40;43.55;;;17.98;;
17145;SDS011;8688;54.444;18.444;2023-04-24T05:00:07;41.33;;;17.35;;
17145;SDS011;8688;54.444;18.444;2023-04-24T05:02:37;41.70;;;17.38;;
17145;SDS011;8688;54.444;18.444;2023-04-24T05:05:05;42.38;;;17.73;;
17145;SDS011;8688;54.444;18.444;2023-04-24T05:07:35;40.25;;;17.40;;
17145;SDS011;8688;54.444;18.444;2023-04-24T05:10:02;48.58;;;18.88;;
17145;SDS011;8688;54.444;18.444;2023-04-24T05:12:30;40.05;;;18.15;;
17145;SDS011;8688;54.444;18.444;2023-04-24T05:14:58;45.30;;;18.92;;
17145;SDS011;8688;54.444;18.444;2023-04-24T05:17:25;43.25;;;19.25;;
17145;SDS011;8688;54.444;18.444;2023-04-24T05:19:52;45.85;;;19.30;;
17145;SDS011;8688;54.444;18.444;2023-04-24T05:22:20;46.50;;;20.70;;
17145;SDS011;8688;54.444;18.444;2023-04-24T05:24:50;45.20;;;20.25;;
17145;SDS011;8688;54.444;18.444;2023-04-24T05:27:18;47.28;;;21.00;;
17145;SDS011;8688;54.444;18.444;2023-04-24T05:29:46;46.38;;;22.00;;
17145;SDS011;8688;54.444;18.444;2023-04-24T05:32:13;45.50;;;21.38;;
17145;SDS011;8688;54.444;18.444;2023-04-24T05:34:41;43.20;;;20.20;;
17145;SDS011;8688;54.444;18.444;2023-04-24T05:37:08;45.30;;;21.13;;
17145;SDS011;8688;54.444;18.444;2023-04-24T05:39:36;42.13;;;20.95;;
17145;SDS011;8688;54.444;18.444;2023-04-24T05:42:05;45.10;;;20.45;;
17145;SDS011;8688;54.444;18.444;2023-04-24T05:44:32;38.35;;;19.42;;
17145;SDS011;8688;54.444;18.444;2023-04-24T05:46:59;39.25;;;19.10;;
17145;SDS011;8688;54.444;18.444;2023-04-24T05:49:27;36.30;;;18.63;;
17145;SDS011;8688;54.444;18.444;2023-04-24T05:51:54;39.38;;;19.50;;
17145;SDS011;8688;54.444;18.444;2023-04-24T05:54:21;39.83;;;18.90;;
17145;SDS011;8688;54.444;18.444;2023-04-24T05:56:49;31.63;;;16.92;;
17145;SDS011;8688;54.444;18.444;2023-04-24T05:59:18;29.73;;;15.23;;
17145;SDS011;8688;54.444;18.444;2023-04-24T06:01:46;28.40;;;15.25;;
17145;SDS011;8688;54.444;18.444;2023-04-24T06:04:13;28.50;;;15.45;;
17145;SDS011;8688;54.444;18.444;2023-04-24T06:06:41;26.65;;;14.63;;
17145;SDS011;8688;54.444;18.444;2023-04-24T06:09:08;25.52;;;14.18;;
17145;SDS011;8688;54.444;18.444;2023-04-24T06:11:35;24.20;;;13.88;;
17145;SDS011;8688;54.444;18.444;2023-04-24T06:14:03;28.17;;;13.45;;
17145;SDS011;8688;54.444;18.444;2023-04-24T06:16:31;27.95;;;13.85;;
17145;SDS011;8688;54.444;18.444;2023-04-24T06:18:59;24.58;;;13.70;;
17145;SDS011;8688;54.444;18.444;2023-04-24T06:21:26;23.35;;;14.85;;
17145;SDS011;8688;54.444;18.444;2023-04-24T06:23:54;27.88;;;15.95;;
17145;SDS011;8688;54.444;18.444;2023-04-24T06:26:21;27.00;;;15.35;;
17145;SDS011;8688;54.444;18.444;2023-04-24T06:28:50;26.50;;;15.57;;
17145;SDS011;8688;54.444;18.444;2023-04-24T06:31:18;26.73;;;16.45;;
17145;SDS011;8688;54.444;18.444;2023-04-24T06:33:48;25.80;;;16.13;;
17145;SDS011;8688;54.444;18.444;2023-04-24T06:36:16;27.83;;;15.48;;
17145;SDS011;8688;54.444;18.444;2023-04-24T06:38:44;25.10;;;14.25;;
17145;SDS011;8688;54.444;18.444;2023-04-24T06:41:11;22.55;;;12.90;;
17145;SDS011;8688;54.444;18.444;2023-04-24T06:43:39;21.58;;;12.95;;
17145;SDS011;8688;54.444;18.444;2023-04-24T06:46:06;19.33;;;11.65;;
17145;SDS011;8688;54.444;18.444;2023-04-24T06:48:34;21.90;;;12.05;;
17145;SDS011;8688;54.444;18.444;2023-04-24T06:51:03;22.42;;;12.40;;
17145;SDS011;8688;54.444;18.444;2023-04-24T06:53:30;21.10;;;12.43;;
17145;SDS011;8688;54.444;18.444;2023-04-24T06:55:58;22.90;;;12.13;;
17145;SDS011;8688;54.444;18.444;2023-04-24T06:58:25;18.63;;;11.48;;
17145;SDS011;8688;54.444;18.444;2023-04-24T07:00:53;19.17;;;10.88;;
17145;SDS011;8688;54.444;18.444;2023-04-24T07:03:20;15.93;;;10.15;;
17145;SDS011;8688;54.444;18.444;2023-04-24T07:05:48;17.27;;;10.07;;
17145;SDS011;8688;54.444;18.444;2023-04-24T07:08:17;16.17;;;10.15;;
17145;SDS011;8688;54.444;18.444;2023-04-24T07:10:46;19.10;;;10.25;;
17145;SDS011;8688;54.444;18.444;2023-04-24T07:13:15;14.52;;;9.30;;
17145;SDS011;8688;54.444;18.444;2023-04-24T07:15:43;17.13;;;10.65;;
17145;SDS011;8688;54.444;18.444;2023-04-24T07:18:10;15.52;;;9.48;;
17145;SDS011;8688;54.444;18.444;2023-04-24T07:20:39;16.67;;;9.38;;
17145;SDS011;8688;54.444;18.444;2023-04-24T07:23:06;14.85;;;9.02;;
17145;SDS011;8688;54.444;18.444;2023-04-24T07:25:35;15.90;;;8.73;;
17145;SDS011;8688;54.444;18.444;2023-04-24T07:28:03;12.43;;;7.85;;
17145;SDS011;8688;54.444;18.444;2023-04-24T07:30:31;11.23;;;7.13;;
17145;SDS011;8688;54.444;18.444;2023-04-24T07:32:59;12.10;;;7.07;;
17145;SDS011;8688;54.444;18.444;2023-04-24T07:35:26;12.50;;;7.28;;
17145;SDS011;8688;54.444;18.444;2023-04-24T07:37:54;9.52;;;6.80;;
17145;SDS011;8688;54.444;18.444;2023-04-24T07:40:21;12.27;;;7.72;;
17145;SDS011;8688;54.444;18.444;2023-04-24T07:42:50;15.88;;;8.35;;
17145;SDS011;8688;54.444;18.444;2023-04-24T07:45:18;10.98;;;7.57;;
17145;SDS011;8688;54.444;18.444;2023-04-24T07:47:45;14.65;;;7.43;;
17145;SDS011;8688;54.444;18.444;2023-04-24T07:50:13;14.57;;;7.88;;
17145;SDS011;8688;54.444;18.444;2023-04-24T07:52:41;14.57;;;8.82;;
17145;SDS011;8688;54.444;18.444;2023-04-24T07:55:08;10.73;;;6.70;;
17145;SDS011;8688;54.444;18.444;2023-04-24T07:57:36;12.32;;;7.30;;
17145;SDS011;8688;54.444;18.444;2023-04-24T08:00:05;12.38;;;7.70;;
17145;SDS011;8688;54.444;18.444;2023-04-24T08:02:34;10.52;;;6.95;;
17145;SDS011;8688;54.444;18.444;2023-04-24T08:05:01;9.70;;;7.22;;
17145;SDS011;8688;54.444;18.444;2023-04-24T08:07:29;14.48;;;7.65;;
17145;SDS011;8688;54.444;18.444;2023-04-24T08:09:56;13.48;;;7.75;;
17145;SDS011;8688;54.444;18.444;2023-04-24T08:12:24;11.73;;;7.03;;
17145;SDS011;8688;54.444;18.444;2023-04-24T08:14:52;12.50;;;7.80;;
17145;SDS011;8688;54.444;18.444;2023-04-24T08:17:21;12.90;;;8.32;;
17145;SDS011;8688;54.444;18.444;2023-04-24T08:19:48;12.40;;;8.27;;
17145;SDS011;8688;54.444;18.444;2023-04-24T08:22:17;14.82;;;7.88;;
17145;SDS011;8688;54.444;18.444;2023-04-24T08:24:45;17.65;;;10.15;;
17145;SDS011;8688;54.444;18.444;2023-04-24T08:27:12;17.92;;;10.40;;
17145;SDS011;8688;54.444;18.444;2023-04-24T08:29:39;17.23;;;9.55;;
17145;SDS011;8688;54.444;18.444;2023-04-24T08:32:07;14.63;;;9.20;;
17145;SDS011;8688;54.444;18.444;2023-04-24T08:34:36;14.43;;;8.82;;
17145;SDS011;8688;54.444;18.444;2023-04-24T08:37:03;18.73;;;11.60;;
17145;SDS011;8688;54.444;18.444;2023-04-24T08:39:30;18.23;;;11.85;;
17145;SDS011;8688;54.444;18.444;2023-04-24T08:41:58;19.85;;;13.00;;
17145;SDS011;8688;54.444;18.444;2023-04-24T08:44:30;20.13;;;12.00;;
17145;SDS011;8688;54.444;18.444;2023-04-24T08:46:58;23.63;;;12.82;;
17145;SDS011;8688;54.444;18.444;2023-04-24T08:49:27;22.45;;;12.88;;
17145;SDS011;8688;54.444;18.444;2023-04-24T08:51:56;21.67;;;13.27;;
17145;SDS011;8688;54.444;18.444;2023-04-24T08:54:25;21.38;;;13.90;;
17145;SDS011;8688;54.444;18.444;2023-04-24T08:56:53;21.73;;;13.85;;
17145;SDS011;8688;54.444;18.444;2023-04-24T08:59:27;22.20;;;13.68;;
17145;SDS011;8688;54.444;18.444;2023-04-24T09:01:55;22.00;;;12.98;;
17145;SDS011;8688;54.444;18.444;2023-04-24T09:04:23;23.73;;;12.48;;
17145;SDS011;8688;54.444;18.444;2023-04-24T09:06:51;20.25;;;11.90;;
17145;SDS011;8688;54.444;18.444;2023-04-24T09:09:23;19.00;;;12.23;;
17145;SDS011;8688;54.444;18.444;2023-04-24T09:11:51;21.23;;;13.10;;
17145;SDS011;8688;54.444;18.444;2023-04-24T09:14:20;23.58;;;13.30;;
17145;SDS011;8688;54.444;18.444;2023-04-24T09:16:49;20.75;;;13.20;;
17145;SDS011;8688;54.444;18.444;2023-04-24T09:19:16;26.05;;;13.30;;
17145;SDS011;8688;54.444;18.444;2023-04-24T09:21:45;21.58;;;13.13;;
17145;SDS011;8688;54.444;18.444;2023-04-24T09:24:14;22.50;;;14.02;;
17145;SDS011;8688;54.444;18.444;2023-04-24T09:26:45;21.77;;;13.40;;
17145;SDS011;8688;54.444;18.444;2023-04-24T09:29:14;19.02;;;12.90;;
17145;SDS011;8688;54.444;18.444;2023-04-24T09:31:42;20.92;;;12.15;;
17145;SDS011;8688;54.444;18.444;2023-04-24T09:34:09;19.15;;;12.70;;
17145;SDS011;8688;54.444;18.444;2023-04-24T09:36:37;23.98;;;13.20;;
17145;SDS011;8688;54.444;18.444;2023-04-24T09:39:06;20.40;;;12.82;;
17145;SDS011;8688;54.444;18.444;2023-04-24T09:41:38;19.95;;;12.38;;
17145;SDS011;8688;54.444;18.444;2023-04-24T09:44:13;19.45;;;12.10;;
17145;SDS011;8688;54.444;18.444;2023-04-24T09:46:41;17.98;;;12.70;;
17145;SDS011;8688;54.444;18.444;2023-04-24T09:49:10;19.42;;;11.63;;
17145;SDS011;8688;54.444;18.444;2023-04-24T09:51:40;20.63;;;11.90;;
17145;SDS011;8688;54.444;18.444;2023-04-24T09:54:13;17.15;;;12.00;;
17145;SDS011;8688;54.444;18.444;2023-04-24T09:56:42;16.92;;;12.25;;
17145;SDS011;8688;54.444;18.444;2023-04-24T09:59:12;15.63;;;11.20;;
17145;SDS011;8688;54.444;18.444;2023-04-24T10:01:40;16.58;;;11.30;;
17145;SDS011;8688;54.444;18.444;2023-04-24T10:04:16;15.88;;;11.45;;
17145;SDS011;8688;54.444;18.444;2023-04-24T10:06:44;16.77;;;11.18;;
17145;SDS011;8688;54.444;18.444;2023-04-24T10:09:14;17.10;;;10.75;;
17145;SDS011;8688;54.444;18.444;2023-04-24T10:11:42;17.35;;;11.43;;
17145;SDS011;8688;54.444;18.444;2023-04-24T10:14:13;16.73;;;12.35;;
17145;SDS011;8688;54.444;18.444;2023-04-24T10:16:42;18.65;;;12.15;;
17145;SDS011;8688;54.444;18.444;2023-04-24T10:19:12;17.17;;;12.07;;
17145;SDS011;8688;54.444;18.444;2023-04-24T10:21:40;17.77;;;12.15;;
17145;SDS011;8688;54.444;18.444;2023-04-24T10:24:11;17.60;;;11.80;;
17145;SDS011;8688;54.444;18.444;2023-04-24T10:26:40;21.00;;;12.82;;
17145;SDS011;8688;54.444;18.444;2023-04-24T10:29:08;16.40;;;11.93;;
17145;SDS011;8688;54.444;18.444;2023-04-24T10:31:39;15.60;;;12.02;;
17145;SDS011;8688;54.444;18.444;2023-04-24T10:34:07;17.77;;;12.60;;
17145;SDS011;8688;54.444;18.444;2023-04-24T10:36:38;17.48;;;12.77;;
17145;SDS011;8688;54.444;18.444;2023-04-24T10:39:11;18.30;;;13.23;;
17145;SDS011;8688;54.444;18.444;2023-04-24T10:41:41;18.13;;;13.20;;
17145;SDS011;8688;54.444;18.444;2023-04-24T10:44:09;20.75;;;13.00;;
17145;SDS011;8688;54.444;18.444;2023-04-24T10:46:39;17.98;;;12.70;;
17145;SDS011;8688;54.444;18.444;2023-04-24T10:49:10;19.33;;;12.80;;
17145;SDS011;8688;54.444;18.444;2023-04-24T10:51:44;17.02;;;11.73;;
17145;SDS011;8688;54.444;18.444;2023-04-24T10:54:24;15.05;;;11.48;;
17145;SDS011;8688;54.444;18.444;2023-04-24T10:56:52;15.73;;;12.40;;
17145;SDS011;8688;54.444;18.444;2023-04-24T10:59:40;14.15;;;11.38;;
17145;SDS011;8688;54.444;18.444;2023-04-24T11:02:09;20.75;;;11.73;;
17145;SDS011;8688;54.444;18.444;2023-04-24T11:04:36;15.93;;;12.07;;
17145;SDS011;8688;54.444;18.444;2023-04-24T11:07:04;16.83;;;12.00;;
17145;SDS011;8688;54.444;18.444;2023-04-24T11:09:33;15.98;;;10.93;;
17145;SDS011;8688;54.444;18.444;2023-04-24T11:12:05;17.33;;;12.13;;
17145;SDS011;8688;54.444;18.444;2023-04-24T11:17:31;17.60;;;12.38;;
17145;SDS011;8688;54.444;18.444;2023-04-24T11:20:02;15.73;;;11.98;;
17145;SDS011;8688;54.444;18.444;2023-04-24T11:22:32;19.45;;;13.35;;
17145;SDS011;8688;54.444;18.444;2023-04-24T11:25:01;21.60;;;13.57;;
17145;SDS011;8688;54.444;18.444;2023-04-24T11:27:29;17.80;;;12.40;;
17145;SDS011;8688;54.444;18.444;2023-04-24T11:29:59;17.08;;;13.00;;
17145;SDS011;8688;54.444;18.444;2023-04-24T11:32:28;18.88;;;11.18;;
17145;SDS011;8688;54.444;18.444;2023-04-24T11:35:02;26.13;;;18.02;;
17145;SDS011;8688;54.444;18.444;2023-04-24T11:37:35;18.92;;;13.25;;
17145;SDS011;8688;54.444;18.444;2023-04-24T11:40:04;16.02;;;12.38;;
17145;SDS011;8688;54.444;18.444;2023-04-24T11:42:34;17.13;;;12.35;;
17145;SDS011;8688;54.444;18.444;2023-04-24T11:45:06;16.08;;;12.23;;
17145;SDS011;8688;54.444;18.444;2023-04-24T11:47:37;16.15;;;11.60;;
17145;SDS011;8688;54.444;18.444;2023-04-24T11:50:05;15.43;;;11.40;;
17145;SDS011;8688;54.444;18.444;2023-04-24T11:52:36;16.13;;;10.88;;
17145;SDS011;8688;54.444;18.444;2023-04-24T11:55:06;11.73;;;9.82;;
17145;SDS011;8688;54.444;18.444;2023-04-24T11:57:56;16.05;;;10.40;;
17145;SDS011;8688;54.444;18.444;2023-04-24T12:00:24;13.15;;;10.23;;
17145;SDS011;8688;54.444;18.444;2023-04-24T12:03:04;15.73;;;10.35;;
17145;SDS011;8688;54.444;18.444;2023-04-24T12:05:32;16.17;;;11.50;;
17145;SDS011;8688;54.444;18.444;2023-04-24T12:08:01;12.40;;;9.57;;
17145;SDS011;8688;54.444;18.444;2023-04-24T12:10:29;13.07;;;8.70;;
17145;SDS011;8688;54.444;18.444;2023-04-24T12:12:58;12.73;;;9.10;;
17145;SDS011;8688;54.444;18.444;2023-04-24T12:15:26;12.35;;;8.50;;
17145;SDS011;8688;54.444;18.444;2023-04-24T12:17:54;10.93;;;7.07;;
17145;SDS011;8688;54.444;18.444;2023-04-24T12:20:27;9.98;;;6.20;;
17145;SDS011;8688;54.444;18.444;2023-04-24T12:22:56;7.35;;;5.40;;
17145;SDS011;8688;54.444;18.444;2023-04-24T12:25:25;8.10;;;5.82;;
17145;SDS011;8688;54.444;18.444;2023-04-24T12:27:55;6.90;;;5.68;;
17145;SDS011;8688;54.444;18.444;2023-04-24T12:30:39;7.75;;;4.97;;
17145;SDS011;8688;54.444;18.444;2023-04-24T12:33:09;9.77;;;4.93;;
17145;SDS011;8688;54.444;18.444;2023-04-24T12:35:39;6.57;;;4.72;;
17145;SDS011;8688;54.444;18.444;2023-04-24T12:38:07;7.07;;;4.60;;
17145;SDS011;8688;54.444;18.444;2023-04-24T12:40:38;8.13;;;4.90;;
17145;SDS011;8688;54.444;18.444;2023-04-24T12:43:13;6.20;;;4.72;;
17145;SDS011;8688;54.444;18.444;2023-04-24T12:45:41;6.85;;;4.93;;
17145;SDS011;8688;54.444;18.444;2023-04-24T12:48:10;5.90;;;4.70;;
17145;SDS011;8688;54.444;18.444;2023-04-24T12:50:41;8.00;;;4.68;;
17145;SDS011;8688;54.444;18.444;2023-04-24T12:53:08;7.03;;;5.03;;
17145;SDS011;8688;54.444;18.444;2023-04-24T12:55:36;6.55;;;4.80;;
17145;SDS011;8688;54.444;18.444;2023-04-24T12:58:04;6.13;;;4.60;;
17145;SDS011;8688;54.444;18.444;2023-04-24T13:00:31;6.00;;;4.30;;
17145;SDS011;8688;54.444;18.444;2023-04-24T13:02:59;6.15;;;3.78;;
17145;SDS011;8688;54.444;18.444;2023-04-24T13:05:27;7.43;;;3.60;;
17145;SDS011;8688;54.444;18.444;2023-04-24T13:07:56;4.72;;;3.55;;
17145;SDS011;8688;54.444;18.444;2023-04-24T13:10:24;7.38;;;3.95;;
17145;SDS011;8688;54.444;18.444;2023-04-24T13:12:51;5.38;;;3.80;;
17145;SDS011;8688;54.444;18.444;2023-04-24T13:15:19;5.25;;;3.67;;
17145;SDS011;8688;54.444;18.444;2023-04-24T13:17:46;5.50;;;3.60;;
17145;SDS011;8688;54.444;18.444;2023-04-24T13:20:13;4.07;;;3.38;;
17145;SDS011;8688;54.444;18.444;2023-04-24T13:22:41;6.43;;;4.00;;
17145;SDS011;8688;54.444;18.444;2023-04-24T13:25:10;4.63;;;3.90;;
17145;SDS011;8688;54.444;18.444;2023-04-24T13:27:38;6.35;;;3.88;;
17145;SDS011;8688;54.444;18.444;2023-04-24T13:30:06;4.78;;;3.60;;
17145;SDS011;8688;54.444;18.444;2023-04-24T13:32:34;6.85;;;4.10;;
17145;SDS011;8688;54.444;18.444;2023-04-24T13:35:02;9.57;;;3.95;;
17145;SDS011;8688;54.444;18.444;2023-04-24T13:37:30;6.32;;;3.78;;
17145;SDS011;8688;54.444;18.444;2023-04-24T13:39:58;7.35;;;4.03;;
17145;SDS011;8688;54.444;18.444;2023-04-24T13:42:27;5.70;;;4.22;;
17145;SDS011;8688;54.444;18.444;2023-04-24T13:44:54;5.88;;;3.80;;
17145;SDS011;8688;54.444;18.444;2023-04-24T13:47:21;7.55;;;3.78;;
17145;SDS011;8688;54.444;18.444;2023-04-24T13:49:49;4.15;;;3.75;;
17145;SDS011;8688;54.444;18.444;2023-04-24T13:52:16;4.20;;;3.78;;
17145;SDS011;8688;54.444;18.444;2023-04-24T13:54:44;7.25;;;3.75;;
17145;SDS011;8688;54.444;18.444;2023-04-24T13:57:11;5.05;;;3.40;;
17145;SDS011;8688;54.444;18.444;2023-04-24T13:59:41;6.82;;;3.45;;
17145;SDS011;8688;54.444;18.444;2023-04-24T14:02:10;5.53;;;3.60;;
17145;SDS011;8688;54.444;18.444;2023-04-24T14:04:38;7.10;;;3.70;;
17145;SDS011;8688;54.444;18.444;2023-04-24T14:07:06;6.75;;;3.90;;
17145;SDS011;8688;54.444;18.444;2023-04-24T14:09:34;5.30;;;3.85;;
17145;SDS011;8688;54.444;18.444;2023-04-24T14:12:02;5.28;;;4.05;;
17145;SDS011;8688;54.444;18.444;2023-04-24T14:14:31;4.47;;;3.50;;
17145;SDS011;8688;54.444;18.444;2023-04-24T14:17:01;7.40;;;3.83;;
17145;SDS011;8688;54.444;18.444;2023-04-24T14:19:29;5.55;;;3.53;;
17145;SDS011;8688;54.444;18.444;2023-04-24T14:21:57;4.35;;;3.80;;
17145;SDS011;8688;54.444;18.444;2023-04-24T14:24:25;6.93;;;4.00;;
17145;SDS011;8688;54.444;18.444;2023-04-24T14:26:55;6.78;;;4.05;;
17145;SDS011;8688;54.444;18.444;2023-04-24T14:29:23;5.63;;;4.32;;
17145;SDS011;8688;54.444;18.444;2023-04-24T14:31:53;6.30;;;4.28;;
17145;SDS011;8688;54.444;18.444;2023-04-24T14:34:23;4.43;;;4.00;;
17145;SDS011;8688;54.444;18.444;2023-04-24T14:36:52;6.78;;;4.57;;
17145;SDS011;8688;54.444;18.444;2023-04-24T14:39:20;5.93;;;4.40;;